sensor_id;sensor_type;location;lat;lon;timestamp;temperature;humidity
8715;DHT22;4394;51.208;8.904;2023-03-29T00:02:26;6.10;99.90
8715;DHT22;4394;51.208;8.904;2023-03-29T00:05:19;6.00;99.90
8715;DHT22;4394;51.208;8.904;2023-03-29T00:08:08;6.00;99.90
8715;DHT22;4394;51.208;8.904;2023-03-29T00:11:00;6.10;99.90
8715;DHT22;4394;51.208;8.904;2023-03-29T00:13:49;6.00;99.90
8715;DHT22;4394;51.208;8.904;2023-03-29T00:16:37;5.90;99.90
8715;DHT22;4394;51.208;8.904;2023-03-29T00:19:25;5.90;99.90
8715;DHT22;4394;51.208;8.904;2023-03-29T00:22:16;5.90;99.90
8715;DHT22;4394;51.208;8.904;2023-03-29T00:25:04;5.90;99.90
8715;DHT22;4394;51.208;8.904;2023-03-29T00:27:52;5.90;99.90
8715;DHT22;4394;51.208;8.904;2023-03-29T00:30:41;6.00;99.90
8715;DHT22;4394;51.208;8.904;2023-03-29T00:33:29;5.90;99.90
8715;DHT22;4394;51.208;8.904;2023-03-29T00:36:17;6.00;99.90
8715;DHT22;4394;51.208;8.904;2023-03-29T00:39:06;6.00;99.90
8715;DHT22;4394;51.208;8.904;2023-03-29T00:41:55;5.90;99.90
8715;DHT22;4394;51.208;8.904;2023-03-29T00:44:59;5.90;99.90
8715;DHT22;4394;51.208;8.904;2023-03-29T00:47:50;5.90;99.90
8715;DHT22;4394;51.208;8.904;2023-03-29T00:50:41;5.90;99.90
8715;DHT22;4394;51.208;8.904;2023-03-29T00:53:31;5.80;99.90
8715;DHT22;4394;51.208;8.904;2023-03-29T00:56:23;5.80;99.90
8715;DHT22;4394;51.208;8.904;2023-03-29T00:59:16;5.70;99.90
8715;DHT22;4394;51.208;8.904;2023-03-29T01:02:05;5.80;99.90
8715;DHT22;4394;51.208;8.904;2023-03-29T01:04:56;5.80;99.90
8715;DHT22;4394;51.208;8.904;2023-03-29T01:07:50;5.80;99.90
8715;DHT22;4394;51.208;8.904;2023-03-29T01:10:47;5.80;99.90
8715;DHT22;4394;51.208;8.904;2023-03-29T01:13:42;5.80;99.90
8715;DHT22;4394;51.208;8.904;2023-03-29T01:16:33;5.70;99.90
8715;DHT22;4394;51.208;8.904;2023-03-29T01:19:24;5.70;99.90
8715;DHT22;4394;51.208;8.904;2023-03-29T01:22:22;5.70;99.90
8715;DHT22;4394;51.208;8.904;2023-03-29T01:25:19;5.60;99.90
8715;DHT22;4394;51.208;8.904;2023-03-29T01:28:14;5.60;99.90
8715;DHT22;4394;51.208;8.904;2023-03-29T01:31:06;5.60;99.90
8715;DHT22;4394;51.208;8.904;2023-03-29T01:34:00;5.60;99.90
8715;DHT22;4394;51.208;8.904;2023-03-29T01:36:51;5.70;99.90
8715;DHT22;4394;51.208;8.904;2023-03-29T01:39:45;5.70;99.90
8715;DHT22;4394;51.208;8.904;2023-03-29T01:42:41;5.70;99.90
8715;DHT22;4394;51.208;8.904;2023-03-29T01:45:35;5.70;99.90
8715;DHT22;4394;51.208;8.904;2023-03-29T01:48:29;5.70;99.90
8715;DHT22;4394;51.208;8.904;2023-03-29T01:51:23;5.70;99.90
8715;DHT22;4394;51.208;8.904;2023-03-29T01:54:17;5.70;99.90
8715;DHT22;4394;51.208;8.904;2023-03-29T01:57:07;5.70;99.90
8715;DHT22;4394;51.208;8.904;2023-03-29T01:59:57;5.70;99.90
8715;DHT22;4394;51.208;8.904;2023-03-29T02:02:47;5.70;99.90
8715;DHT22;4394;51.208;8.904;2023-03-29T02:05:38;5.70;99.90
8715;DHT22;4394;51.208;8.904;2023-03-29T02:08:27;5.70;99.90
8715;DHT22;4394;51.208;8.904;2023-03-29T02:11:16;5.70;99.90
8715;DHT22;4394;51.208;8.904;2023-03-29T02:14:05;5.70;99.90
8715;DHT22;4394;51.208;8.904;2023-03-29T02:16:53;5.60;99.90
8715;DHT22;4394;51.208;8.904;2023-03-29T02:19:43;5.60;99.90
8715;DHT22;4394;51.208;8.904;2023-03-29T02:22:42;5.60;99.90
8715;DHT22;4394;51.208;8.904;2023-03-29T02:25:33;5.60;99.90
8715;DHT22;4394;51.208;8.904;2023-03-29T02:28:23;5.60;99.90
8715;DHT22;4394;51.208;8.904;2023-03-29T02:31:15;5.60;99.90
8715;DHT22;4394;51.208;8.904;2023-03-29T02:34:10;5.60;99.90
8715;DHT22;4394;51.208;8.904;2023-03-29T02:37:07;5.60;99.90
8715;DHT22;4394;51.208;8.904;2023-03-29T02:39:58;5.60;99.90
8715;DHT22;4394;51.208;8.904;2023-03-29T02:42:47;5.60;99.90
8715;DHT22;4394;51.208;8.904;2023-03-29T02:45:37;5.60;99.90
8715;DHT22;4394;51.208;8.904;2023-03-29T02:48:27;5.60;99.90
8715;DHT22;4394;51.208;8.904;2023-03-29T02:51:18;5.60;99.90
8715;DHT22;4394;51.208;8.904;2023-03-29T02:54:12;5.60;99.90
8715;DHT22;4394;51.208;8.904;2023-03-29T02:57:03;5.60;99.90
8715;DHT22;4394;51.208;8.904;2023-03-29T02:59:52;5.60;99.90
8715;DHT22;4394;51.208;8.904;2023-03-29T03:02:41;5.60;99.90
8715;DHT22;4394;51.208;8.904;2023-03-29T03:05:30;5.60;99.90
8715;DHT22;4394;51.208;8.904;2023-03-29T03:08:18;5.60;99.90
8715;DHT22;4394;51.208;8.904;2023-03-29T03:11:07;5.70;99.90
8715;DHT22;4394;51.208;8.904;2023-03-29T03:13:56;5.70;99.90
8715;DHT22;4394;51.208;8.904;2023-03-29T03:16:44;5.60;99.90
8715;DHT22;4394;51.208;8.904;2023-03-29T03:19:32;5.60;99.90
8715;DHT22;4394;51.208;8.904;2023-03-29T03:22:20;5.60;99.90
8715;DHT22;4394;51.208;8.904;2023-03-29T03:25:09;5.70;99.90
8715;DHT22;4394;51.208;8.904;2023-03-29T03:27:59;5.70;99.90
8715;DHT22;4394;51.208;8.904;2023-03-29T03:30:47;5.70;99.90
8715;DHT22;4394;51.208;8.904;2023-03-29T03:33:35;5.60;99.90
8715;DHT22;4394;51.208;8.904;2023-03-29T03:36:23;5.60;99.90
8715;DHT22;4394;51.208;8.904;2023-03-29T03:39:14;5.60;99.90
8715;DHT22;4394;51.208;8.904;2023-03-29T03:42:03;5.60;99.90
8715;DHT22;4394;51.208;8.904;2023-03-29T03:44:55;5.60;99.90
8715;DHT22;4394;51.208;8.904;2023-03-29T03:47:43;5.60;99.90
8715;DHT22;4394;51.208;8.904;2023-03-29T03:50:31;5.60;99.90
8715;DHT22;4394;51.208;8.904;2023-03-29T03:53:20;5.50;99.90
8715;DHT22;4394;51.208;8.904;2023-03-29T03:56:08;5.50;99.90
8715;DHT22;4394;51.208;8.904;2023-03-29T03:58:57;5.60;99.90
8715;DHT22;4394;51.208;8.904;2023-03-29T04:01:46;5.60;99.90
8715;DHT22;4394;51.208;8.904;2023-03-29T04:04:34;5.70;99.90
8715;DHT22;4394;51.208;8.904;2023-03-29T04:07:22;5.50;99.90
8715;DHT22;4394;51.208;8.904;2023-03-29T04:10:11;5.50;99.90
8715;DHT22;4394;51.208;8.904;2023-03-29T04:12:59;5.60;99.90
8715;DHT22;4394;51.208;8.904;2023-03-29T04:15:48;5.60;99.90
8715;DHT22;4394;51.208;8.904;2023-03-29T04:18:41;5.60;99.90
8715;DHT22;4394;51.208;8.904;2023-03-29T04:21:29;5.60;99.90
8715;DHT22;4394;51.208;8.904;2023-03-29T04:24:19;5.60;99.90
8715;DHT22;4394;51.208;8.904;2023-03-29T04:27:07;5.60;99.90
8715;DHT22;4394;51.208;8.904;2023-03-29T04:29:56;5.60;99.90
8715;DHT22;4394;51.208;8.904;2023-03-29T04:32:44;5.60;99.90
8715;DHT22;4394;51.208;8.904;2023-03-29T04:35:34;5.70;99.90
8715;DHT22;4394;51.208;8.904;2023-03-29T04:38:22;5.70;99.90
8715;DHT22;4394;51.208;8.904;2023-03-29T04:41:10;5.70;99.90
8715;DHT22;4394;51.208;8.904;2023-03-29T04:43:59;5.60;99.90
8715;DHT22;4394;51.208;8.904;2023-03-29T04:46:48;5.60;99.90
8715;DHT22;4394;51.208;8.904;2023-03-29T04:49:36;5.50;99.90
8715;DHT22;4394;51.208;8.904;2023-03-29T04:52:25;5.60;99.90
8715;DHT22;4394;51.208;8.904;2023-03-29T04:55:13;5.60;99.90
8715;DHT22;4394;51.208;8.904;2023-03-29T04:58:01;5.60;99.90
8715;DHT22;4394;51.208;8.904;2023-03-29T05:00:53;5.60;99.90
8715;DHT22;4394;51.208;8.904;2023-03-29T05:03:41;5.60;99.90
8715;DHT22;4394;51.208;8.904;2023-03-29T05:06:30;5.60;99.90
8715;DHT22;4394;51.208;8.904;2023-03-29T05:09:19;5.60;99.90
8715;DHT22;4394;51.208;8.904;2023-03-29T05:12:07;5.60;99.90
8715;DHT22;4394;51.208;8.904;2023-03-29T05:14:56;5.60;99.90
8715;DHT22;4394;51.208;8.904;2023-03-29T05:17:44;5.60;99.90
8715;DHT22;4394;51.208;8.904;2023-03-29T05:20:33;5.50;99.90
8715;DHT22;4394;51.208;8.904;2023-03-29T05:23:21;5.60;99.90
8715;DHT22;4394;51.208;8.904;2023-03-29T05:26:11;5.60;99.90
8715;DHT22;4394;51.208;8.904;2023-03-29T05:29:01;5.60;99.90
8715;DHT22;4394;51.208;8.904;2023-03-29T05:31:50;5.60;99.90
8715;DHT22;4394;51.208;8.904;2023-03-29T05:34:39;5.60;99.90
8715;DHT22;4394;51.208;8.904;2023-03-29T05:37:27;5.60;99.90
8715;DHT22;4394;51.208;8.904;2023-03-29T05:40:15;5.60;99.90
8715;DHT22;4394;51.208;8.904;2023-03-29T05:43:05;5.60;99.90
8715;DHT22;4394;51.208;8.904;2023-03-29T05:45:53;5.60;99.90
8715;DHT22;4394;51.208;8.904;2023-03-29T05:48:41;5.60;99.90
8715;DHT22;4394;51.208;8.904;2023-03-29T05:51:29;5.70;99.90
8715;DHT22;4394;51.208;8.904;2023-03-29T05:54:19;5.70;99.90
8715;DHT22;4394;51.208;8.904;2023-03-29T05:57:07;5.60;99.90
8715;DHT22;4394;51.208;8.904;2023-03-29T05:59:56;5.60;99.90
8715;DHT22;4394;51.208;8.904;2023-03-29T06:02:44;5.70;99.90
8715;DHT22;4394;51.208;8.904;2023-03-29T06:05:33;5.70;99.90
8715;DHT22;4394;51.208;8.904;2023-03-29T06:08:21;5.70;99.90
8715;DHT22;4394;51.208;8.904;2023-03-29T06:11:10;5.80;99.90
8715;DHT22;4394;51.208;8.904;2023-03-29T06:13:59;5.70;99.90
8715;DHT22;4394;51.208;8.904;2023-03-29T06:16:49;5.80;99.90
8715;DHT22;4394;51.208;8.904;2023-03-29T06:19:37;5.80;99.90
8715;DHT22;4394;51.208;8.904;2023-03-29T06:22:26;5.80;99.90
8715;DHT22;4394;51.208;8.904;2023-03-29T06:25:14;5.90;99.90
8715;DHT22;4394;51.208;8.904;2023-03-29T06:28:03;5.80;99.90
8715;DHT22;4394;51.208;8.904;2023-03-29T06:30:51;5.90;99.90
8715;DHT22;4394;51.208;8.904;2023-03-29T06:33:43;5.90;99.90
8715;DHT22;4394;51.208;8.904;2023-03-29T06:36:32;6.00;99.90
8715;DHT22;4394;51.208;8.904;2023-03-29T06:39:20;6.00;99.90
8715;DHT22;4394;51.208;8.904;2023-03-29T06:42:08;6.00;99.90
8715;DHT22;4394;51.208;8.904;2023-03-29T06:45:07;6.10;99.90
8715;DHT22;4394;51.208;8.904;2023-03-29T06:47:56;6.10;99.90
8715;DHT22;4394;51.208;8.904;2023-03-29T06:50:46;6.10;99.90
8715;DHT22;4394;51.208;8.904;2023-03-29T06:53:34;6.10;99.90
8715;DHT22;4394;51.208;8.904;2023-03-29T06:56:22;6.20;99.90
8715;DHT22;4394;51.208;8.904;2023-03-29T06:59:10;6.30;99.90
8715;DHT22;4394;51.208;8.904;2023-03-29T07:01:59;6.30;99.90
8715;DHT22;4394;51.208;8.904;2023-03-29T07:04:48;6.30;99.90
8715;DHT22;4394;51.208;8.904;2023-03-29T07:07:38;6.30;99.90
8715;DHT22;4394;51.208;8.904;2023-03-29T07:10:41;6.40;99.90
8715;DHT22;4394;51.208;8.904;2023-03-29T07:13:29;6.40;99.90
8715;DHT22;4394;51.208;8.904;2023-03-29T07:16:18;6.50;99.90
8715;DHT22;4394;51.208;8.904;2023-03-29T07:19:06;6.60;99.90
8715;DHT22;4394;51.208;8.904;2023-03-29T07:21:56;6.70;99.90
8715;DHT22;4394;51.208;8.904;2023-03-29T07:24:45;6.60;99.90
8715;DHT22;4394;51.208;8.904;2023-03-29T07:27:35;6.70;99.90
8715;DHT22;4394;51.208;8.904;2023-03-29T07:30:25;6.60;99.90
8715;DHT22;4394;51.208;8.904;2023-03-29T07:33:18;6.60;99.90
8715;DHT22;4394;51.208;8.904;2023-03-29T07:36:07;6.60;99.90
8715;DHT22;4394;51.208;8.904;2023-03-29T07:38:55;6.70;99.90
8715;DHT22;4394;51.208;8.904;2023-03-29T07:41:44;6.80;99.90
8715;DHT22;4394;51.208;8.904;2023-03-29T07:44:33;6.90;99.90
8715;DHT22;4394;51.208;8.904;2023-03-29T07:47:21;6.90;99.90
8715;DHT22;4394;51.208;8.904;2023-03-29T07:50:10;7.00;99.90
8715;DHT22;4394;51.208;8.904;2023-03-29T07:52:59;7.10;99.90
8715;DHT22;4394;51.208;8.904;2023-03-29T07:55:48;7.10;99.90
8715;DHT22;4394;51.208;8.904;2023-03-29T07:58:39;7.30;99.90
8715;DHT22;4394;51.208;8.904;2023-03-29T08:01:27;7.30;99.90
8715;DHT22;4394;51.208;8.904;2023-03-29T08:04:15;7.30;99.90
8715;DHT22;4394;51.208;8.904;2023-03-29T08:07:03;7.40;99.90
8715;DHT22;4394;51.208;8.904;2023-03-29T08:09:51;7.40;99.90
8715;DHT22;4394;51.208;8.904;2023-03-29T08:12:40;7.50;99.90
8715;DHT22;4394;51.208;8.904;2023-03-29T08:15:29;7.50;99.90
8715;DHT22;4394;51.208;8.904;2023-03-29T08:18:17;7.60;99.90
8715;DHT22;4394;51.208;8.904;2023-03-29T08:21:06;7.70;99.90
8715;DHT22;4394;51.208;8.904;2023-03-29T08:23:54;7.70;99.90
8715;DHT22;4394;51.208;8.904;2023-03-29T08:26:42;7.70;99.90
8715;DHT22;4394;51.208;8.904;2023-03-29T08:29:30;7.70;99.90
8715;DHT22;4394;51.208;8.904;2023-03-29T08:32:19;7.70;99.90
8715;DHT22;4394;51.208;8.904;2023-03-29T08:35:08;7.80;99.90
8715;DHT22;4394;51.208;8.904;2023-03-29T08:37:57;7.90;99.90
8715;DHT22;4394;51.208;8.904;2023-03-29T08:40:47;8.00;99.90
8715;DHT22;4394;51.208;8.904;2023-03-29T08:43:47;8.00;99.90
8715;DHT22;4394;51.208;8.904;2023-03-29T08:46:43;8.00;99.90
8715;DHT22;4394;51.208;8.904;2023-03-29T08:49:37;8.10;99.90
8715;DHT22;4394;51.208;8.904;2023-03-29T08:52:32;8.20;99.90
8715;DHT22;4394;51.208;8.904;2023-03-29T08:55:25;8.30;99.90
8715;DHT22;4394;51.208;8.904;2023-03-29T08:58:16;8.30;99.90
8715;DHT22;4394;51.208;8.904;2023-03-29T09:01:07;8.30;99.90
8715;DHT22;4394;51.208;8.904;2023-03-29T09:04:02;8.40;99.90
8715;DHT22;4394;51.208;8.904;2023-03-29T09:06:53;8.50;99.90
8715;DHT22;4394;51.208;8.904;2023-03-29T09:09:41;8.50;99.90
8715;DHT22;4394;51.208;8.904;2023-03-29T09:12:38;8.50;99.90
8715;DHT22;4394;51.208;8.904;2023-03-29T09:15:33;8.50;99.90
8715;DHT22;4394;51.208;8.904;2023-03-29T09:18:31;8.50;99.90
8715;DHT22;4394;51.208;8.904;2023-03-29T09:21:25;8.60;99.90
8715;DHT22;4394;51.208;8.904;2023-03-29T09:27:43;8.80;99.90
8715;DHT22;4394;51.208;8.904;2023-03-29T09:30:39;8.80;99.90
8715;DHT22;4394;51.208;8.904;2023-03-29T09:33:31;8.90;99.90
8715;DHT22;4394;51.208;8.904;2023-03-29T09:36:24;9.00;99.90
8715;DHT22;4394;51.208;8.904;2023-03-29T09:39:16;9.10;99.90
8715;DHT22;4394;51.208;8.904;2023-03-29T09:42:06;9.20;99.90
8715;DHT22;4394;51.208;8.904;2023-03-29T09:45:00;9.30;99.90
8715;DHT22;4394;51.208;8.904;2023-03-29T09:47:56;9.40;99.90
8715;DHT22;4394;51.208;8.904;2023-03-29T09:50:47;9.40;99.90
8715;DHT22;4394;51.208;8.904;2023-03-29T09:53:37;9.50;99.90
8715;DHT22;4394;51.208;8.904;2023-03-29T09:56:25;9.50;99.90
8715;DHT22;4394;51.208;8.904;2023-03-29T09:59:15;9.50;99.90
8715;DHT22;4394;51.208;8.904;2023-03-29T10:02:07;9.60;99.90
8715;DHT22;4394;51.208;8.904;2023-03-29T10:04:55;9.50;99.90
8715;DHT22;4394;51.208;8.904;2023-03-29T10:07:49;9.60;99.90
8715;DHT22;4394;51.208;8.904;2023-03-29T10:10:38;9.70;99.90
8715;DHT22;4394;51.208;8.904;2023-03-29T10:13:27;9.90;99.90
8715;DHT22;4394;51.208;8.904;2023-03-29T10:16:20;9.90;99.90
8715;DHT22;4394;51.208;8.904;2023-03-29T10:19:19;10.00;99.90
8715;DHT22;4394;51.208;8.904;2023-03-29T10:22:15;10.00;99.90
8715;DHT22;4394;51.208;8.904;2023-03-29T10:25:11;10.00;99.90
8715;DHT22;4394;51.208;8.904;2023-03-29T10:28:03;10.00;99.90
8715;DHT22;4394;51.208;8.904;2023-03-29T10:30:54;10.00;99.90
8715;DHT22;4394;51.208;8.904;2023-03-29T10:33:50;10.10;99.90
8715;DHT22;4394;51.208;8.904;2023-03-29T10:36:39;10.20;99.90
8715;DHT22;4394;51.208;8.904;2023-03-29T10:39:32;10.30;99.90
8715;DHT22;4394;51.208;8.904;2023-03-29T10:42:23;10.40;99.90
8715;DHT22;4394;51.208;8.904;2023-03-29T10:45:19;10.50;99.90
8715;DHT22;4394;51.208;8.904;2023-03-29T10:48:11;10.50;99.90
8715;DHT22;4394;51.208;8.904;2023-03-29T10:51:02;10.50;99.90
8715;DHT22;4394;51.208;8.904;2023-03-29T10:53:53;10.50;99.90
8715;DHT22;4394;51.208;8.904;2023-03-29T10:56:45;10.60;99.90
8715;DHT22;4394;51.208;8.904;2023-03-29T10:59:39;10.70;99.90
8715;DHT22;4394;51.208;8.904;2023-03-29T11:02:51;10.70;99.90
8715;DHT22;4394;51.208;8.904;2023-03-29T11:05:49;10.70;99.90
8715;DHT22;4394;51.208;8.904;2023-03-29T11:08:57;10.70;99.90
8715;DHT22;4394;51.208;8.904;2023-03-29T11:11:56;10.80;99.90
8715;DHT22;4394;51.208;8.904;2023-03-29T11:15:20;11.00;99.90
8715;DHT22;4394;51.208;8.904;2023-03-29T11:18:28;11.20;99.90
8715;DHT22;4394;51.208;8.904;2023-03-29T11:21:23;11.20;99.90
8715;DHT22;4394;51.208;8.904;2023-03-29T11:24:25;11.30;99.90
8715;DHT22;4394;51.208;8.904;2023-03-29T11:27:21;11.50;99.90
8715;DHT22;4394;51.208;8.904;2023-03-29T11:30:19;11.50;99.90
8715;DHT22;4394;51.208;8.904;2023-03-29T11:33:19;11.60;99.90
8715;DHT22;4394;51.208;8.904;2023-03-29T11:36:16;11.70;99.90
8715;DHT22;4394;51.208;8.904;2023-03-29T11:39:14;11.70;99.90
8715;DHT22;4394;51.208;8.904;2023-03-29T11:42:08;11.70;99.90
8715;DHT22;4394;51.208;8.904;2023-03-29T11:45:00;11.70;99.90
8715;DHT22;4394;51.208;8.904;2023-03-29T11:47:50;11.70;99.90
8715;DHT22;4394;51.208;8.904;2023-03-29T11:50:43;11.70;99.90
8715;DHT22;4394;51.208;8.904;2023-03-29T11:53:38;11.80;99.90
8715;DHT22;4394;51.208;8.904;2023-03-29T11:56:32;11.90;99.90
8715;DHT22;4394;51.208;8.904;2023-03-29T11:59:29;11.90;99.90
8715;DHT22;4394;51.208;8.904;2023-03-29T12:02:24;11.90;99.90
8715;DHT22;4394;51.208;8.904;2023-03-29T12:05:19;11.90;99.90
8715;DHT22;4394;51.208;8.904;2023-03-29T12:08:11;11.90;99.90
8715;DHT22;4394;51.208;8.904;2023-03-29T12:11:03;12.00;99.90
8715;DHT22;4394;51.208;8.904;2023-03-29T12:13:57;12.10;99.90
8715;DHT22;4394;51.208;8.904;2023-03-29T12:16:48;12.10;99.90
8715;DHT22;4394;51.208;8.904;2023-03-29T12:19:43;12.20;99.90
8715;DHT22;4394;51.208;8.904;2023-03-29T12:22:33;12.30;99.90
8715;DHT22;4394;51.208;8.904;2023-03-29T12:25:25;12.40;99.90
8715;DHT22;4394;51.208;8.904;2023-03-29T12:28:26;12.50;99.90
8715;DHT22;4394;51.208;8.904;2023-03-29T12:31:23;12.60;99.90
8715;DHT22;4394;51.208;8.904;2023-03-29T12:34:34;12.60;99.90
8715;DHT22;4394;51.208;8.904;2023-03-29T12:37:39;12.70;99.90
8715;DHT22;4394;51.208;8.904;2023-03-29T12:40:38;12.70;99.90
8715;DHT22;4394;51.208;8.904;2023-03-29T12:43:30;12.60;99.90
8715;DHT22;4394;51.208;8.904;2023-03-29T12:46:23;12.60;99.90
8715;DHT22;4394;51.208;8.904;2023-03-29T12:49:18;12.70;99.90
8715;DHT22;4394;51.208;8.904;2023-03-29T12:52:22;12.70;99.90
8715;DHT22;4394;51.208;8.904;2023-03-29T12:55:21;12.70;99.90
8715;DHT22;4394;51.208;8.904;2023-03-29T12:58:26;12.70;99.90
8715;DHT22;4394;51.208;8.904;2023-03-29T13:01:26;12.80;99.90
8715;DHT22;4394;51.208;8.904;2023-03-29T13:04:17;12.80;99.90
8715;DHT22;4394;51.208;8.904;2023-03-29T13:07:13;12.90;99.90
8715;DHT22;4394;51.208;8.904;2023-03-29T13:10:05;12.90;99.90
8715;DHT22;4394;51.208;8.904;2023-03-29T13:12:54;12.80;99.90
8715;DHT22;4394;51.208;8.904;2023-03-29T13:15:44;12.80;99.90
8715;DHT22;4394;51.208;8.904;2023-03-29T13:18:40;12.90;99.90
8715;DHT22;4394;51.208;8.904;2023-03-29T13:21:39;12.90;99.90
8715;DHT22;4394;51.208;8.904;2023-03-29T13:24:45;13.00;99.90
8715;DHT22;4394;51.208;8.904;2023-03-29T13:27:40;13.20;99.90
8715;DHT22;4394;51.208;8.904;2023-03-29T13:30:39;13.30;99.90
8715;DHT22;4394;51.208;8.904;2023-03-29T13:33:43;13.30;99.90
8715;DHT22;4394;51.208;8.904;2023-03-29T13:36:48;13.40;99.90
8715;DHT22;4394;51.208;8.904;2023-03-29T13:39:48;13.50;99.90
8715;DHT22;4394;51.208;8.904;2023-03-29T13:42:38;13.50;99.90
8715;DHT22;4394;51.208;8.904;2023-03-29T13:45:28;13.60;99.90
8715;DHT22;4394;51.208;8.904;2023-03-29T13:48:21;13.50;99.90
8715;DHT22;4394;51.208;8.904;2023-03-29T13:51:25;13.60;99.90
8715;DHT22;4394;51.208;8.904;2023-03-29T13:54:25;13.60;99.90
8715;DHT22;4394;51.208;8.904;2023-03-29T13:57:18;13.60;99.90
8715;DHT22;4394;51.208;8.904;2023-03-29T14:00:13;13.60;99.90
8715;DHT22;4394;51.208;8.904;2023-03-29T14:03:05;13.70;99.90
8715;DHT22;4394;51.208;8.904;2023-03-29T14:05:57;13.80;99.90
8715;DHT22;4394;51.208;8.904;2023-03-29T14:08:47;13.90;99.90
8715;DHT22;4394;51.208;8.904;2023-03-29T14:11:36;13.90;99.90
8715;DHT22;4394;51.208;8.904;2023-03-29T14:14:27;13.90;99.90
8715;DHT22;4394;51.208;8.904;2023-03-29T14:17:19;13.90;99.90
8715;DHT22;4394;51.208;8.904;2023-03-29T14:20:12;14.00;99.90
8715;DHT22;4394;51.208;8.904;2023-03-29T14:23:08;14.00;99.90
8715;DHT22;4394;51.208;8.904;2023-03-29T14:26:05;14.10;99.90
8715;DHT22;4394;51.208;8.904;2023-03-29T14:28:55;14.10;99.90
8715;DHT22;4394;51.208;8.904;2023-03-29T14:31:45;14.00;99.90
8715;DHT22;4394;51.208;8.904;2023-03-29T14:34:33;14.00;99.90
8715;DHT22;4394;51.208;8.904;2023-03-29T14:37:23;13.90;99.90
8715;DHT22;4394;51.208;8.904;2023-03-29T14:40:16;14.00;99.90
8715;DHT22;4394;51.208;8.904;2023-03-29T14:43:06;14.00;99.90
8715;DHT22;4394;51.208;8.904;2023-03-29T14:45:54;14.00;99.90
8715;DHT22;4394;51.208;8.904;2023-03-29T14:48:44;14.10;99.90
8715;DHT22;4394;51.208;8.904;2023-03-29T14:51:32;14.20;99.90
8715;DHT22;4394;51.208;8.904;2023-03-29T14:54:24;14.20;99.90
8715;DHT22;4394;51.208;8.904;2023-03-29T14:57:14;14.30;99.90
8715;DHT22;4394;51.208;8.904;2023-03-29T15:00:18;14.30;99.90
8715;DHT22;4394;51.208;8.904;2023-03-29T15:03:12;14.30;99.90
8715;DHT22;4394;51.208;8.904;2023-03-29T15:06:03;14.30;99.90
8715;DHT22;4394;51.208;8.904;2023-03-29T15:08:52;14.30;99.90
8715;DHT22;4394;51.208;8.904;2023-03-29T15:11:52;14.30;99.90
8715;DHT22;4394;51.208;8.904;2023-03-29T15:14:41;14.20;99.90
8715;DHT22;4394;51.208;8.904;2023-03-29T15:17:32;14.20;99.90
8715;DHT22;4394;51.208;8.904;2023-03-29T15:20:37;14.10;99.90
8715;DHT22;4394;51.208;8.904;2023-03-29T15:23:33;14.10;99.90
8715;DHT22;4394;51.208;8.904;2023-03-29T15:26:23;14.10;99.90
8715;DHT22;4394;51.208;8.904;2023-03-29T15:29:14;14.10;99.90
8715;DHT22;4394;51.208;8.904;2023-03-29T15:32:18;14.00;99.90
8715;DHT22;4394;51.208;8.904;2023-03-29T15:35:20;13.90;99.90
8715;DHT22;4394;51.208;8.904;2023-03-29T15:38:09;13.90;99.90
8715;DHT22;4394;51.208;8.904;2023-03-29T15:41:00;14.00;99.90
8715;DHT22;4394;51.208;8.904;2023-03-29T15:43:49;14.00;99.90
8715;DHT22;4394;51.208;8.904;2023-03-29T15:46:37;14.00;99.90
8715;DHT22;4394;51.208;8.904;2023-03-29T15:49:25;14.00;99.90
8715;DHT22;4394;51.208;8.904;2023-03-29T15:52:13;14.00;99.90
8715;DHT22;4394;51.208;8.904;2023-03-29T15:55:02;14.00;99.90
8715;DHT22;4394;51.208;8.904;2023-03-29T15:57:52;14.00;99.90
8715;DHT22;4394;51.208;8.904;2023-03-29T16:00:43;14.00;99.90
8715;DHT22;4394;51.208;8.904;2023-03-29T16:03:33;13.90;99.90
8715;DHT22;4394;51.208;8.904;2023-03-29T16:06:21;13.90;99.90
8715;DHT22;4394;51.208;8.904;2023-03-29T16:09:09;14.00;99.90
8715;DHT22;4394;51.208;8.904;2023-03-29T16:11:58;13.90;99.90
8715;DHT22;4394;51.208;8.904;2023-03-29T16:14:48;13.90;99.90
8715;DHT22;4394;51.208;8.904;2023-03-29T16:17:36;13.90;99.90
8715;DHT22;4394;51.208;8.904;2023-03-29T16:20:24;13.90;99.90
8715;DHT22;4394;51.208;8.904;2023-03-29T16:23:13;13.90;99.90
8715;DHT22;4394;51.208;8.904;2023-03-29T16:26:01;13.80;99.90
8715;DHT22;4394;51.208;8.904;2023-03-29T16:28:49;13.80;99.90
8715;DHT22;4394;51.208;8.904;2023-03-29T16:31:39;13.70;99.90
8715;DHT22;4394;51.208;8.904;2023-03-29T16:34:27;13.60;99.90
8715;DHT22;4394;51.208;8.904;2023-03-29T16:37:15;13.60;99.90
8715;DHT22;4394;51.208;8.904;2023-03-29T16:40:04;13.50;99.90
8715;DHT22;4394;51.208;8.904;2023-03-29T16:42:54;13.50;99.90
8715;DHT22;4394;51.208;8.904;2023-03-29T16:45:42;13.50;99.90
8715;DHT22;4394;51.208;8.904;2023-03-29T16:48:31;13.40;99.90
8715;DHT22;4394;51.208;8.904;2023-03-29T16:51:19;13.40;99.90
8715;DHT22;4394;51.208;8.904;2023-03-29T16:54:07;13.40;99.90
8715;DHT22;4394;51.208;8.904;2023-03-29T16:56:56;13.30;99.90
8715;DHT22;4394;51.208;8.904;2023-03-29T16:59:44;13.30;99.90
8715;DHT22;4394;51.208;8.904;2023-03-29T17:02:33;13.20;99.90
8715;DHT22;4394;51.208;8.904;2023-03-29T17:05:22;13.20;99.90
8715;DHT22;4394;51.208;8.904;2023-03-29T17:08:11;13.20;99.90
8715;DHT22;4394;51.208;8.904;2023-03-29T17:10:59;13.20;99.90
8715;DHT22;4394;51.208;8.904;2023-03-29T17:13:48;13.20;99.90
8715;DHT22;4394;51.208;8.904;2023-03-29T17:16:36;13.10;99.90
8715;DHT22;4394;51.208;8.904;2023-03-29T17:19:25;13.10;99.90
8715;DHT22;4394;51.208;8.904;2023-03-29T17:22:14;13.00;99.90
8715;DHT22;4394;51.208;8.904;2023-03-29T17:25:03;13.00;99.90
8715;DHT22;4394;51.208;8.904;2023-03-29T17:27:53;13.00;99.90
8715;DHT22;4394;51.208;8.904;2023-03-29T17:30:43;13.00;99.90
8715;DHT22;4394;51.208;8.904;2023-03-29T17:33:32;12.90;99.90
8715;DHT22;4394;51.208;8.904;2023-03-29T17:36:20;12.90;99.90
8715;DHT22;4394;51.208;8.904;2023-03-29T17:39:11;12.90;99.90
8715;DHT22;4394;51.208;8.904;2023-03-29T17:42:01;12.80;99.90
8715;DHT22;4394;51.208;8.904;2023-03-29T17:44:49;12.80;99.90
8715;DHT22;4394;51.208;8.904;2023-03-29T17:47:37;12.80;99.90
8715;DHT22;4394;51.208;8.904;2023-03-29T17:50:25;12.80;99.90
8715;DHT22;4394;51.208;8.904;2023-03-29T17:53:14;12.70;99.90
8715;DHT22;4394;51.208;8.904;2023-03-29T17:56:03;12.80;99.90
8715;DHT22;4394;51.208;8.904;2023-03-29T17:58:52;12.80;99.90
8715;DHT22;4394;51.208;8.904;2023-03-29T18:01:40;12.70;99.90
8715;DHT22;4394;51.208;8.904;2023-03-29T18:04:29;12.70;99.90
8715;DHT22;4394;51.208;8.904;2023-03-29T18:07:17;12.70;99.90
8715;DHT22;4394;51.208;8.904;2023-03-29T18:10:06;12.70;99.90
8715;DHT22;4394;51.208;8.904;2023-03-29T18:12:55;12.70;99.90
8715;DHT22;4394;51.208;8.904;2023-03-29T18:15:43;12.60;99.90
8715;DHT22;4394;51.208;8.904;2023-03-29T18:18:33;12.60;99.90
8715;DHT22;4394;51.208;8.904;2023-03-29T18:21:21;12.60;99.90
8715;DHT22;4394;51.208;8.904;2023-03-29T18:24:11;12.60;99.90
8715;DHT22;4394;51.208;8.904;2023-03-29T18:27:00;12.60;99.90
8715;DHT22;4394;51.208;8.904;2023-03-29T18:29:49;12.60;99.90
8715;DHT22;4394;51.208;8.904;2023-03-29T18:32:37;12.50;99.90
8715;DHT22;4394;51.208;8.904;2023-03-29T18:35:25;12.60;99.90
8715;DHT22;4394;51.208;8.904;2023-03-29T18:38:14;12.50;99.90
8715;DHT22;4394;51.208;8.904;2023-03-29T18:41:02;12.60;99.90
8715;DHT22;4394;51.208;8.904;2023-03-29T18:43:51;12.60;99.90
8715;DHT22;4394;51.208;8.904;2023-03-29T18:46:44;12.50;99.90
8715;DHT22;4394;51.208;8.904;2023-03-29T18:49:33;12.50;99.90
8715;DHT22;4394;51.208;8.904;2023-03-29T18:52:22;12.60;99.90